createdAt,value
2019-02-06T00:01:54.697Z,86.03
2019-02-06T00:04:23.418Z,86.07
2019-02-06T00:06:53.946Z,86.02
2019-02-06T00:09:22.505Z,86.03
2019-02-06T00:11:51.260Z,85.84
2019-02-06T00:14:20.156Z,85.72
2019-02-06T00:16:50.934Z,85.70
2019-02-06T00:19:19.929Z,85.71
2019-02-06T00:21:48.608Z,85.86
2019-02-06T00:24:17.065Z,85.65
2019-02-06T00:26:46.782Z,85.62
2019-02-06T00:29:15.872Z,85.83
2019-02-06T00:31:44.347Z,85.83
2019-02-06T00:34:13.336Z,85.97
2019-02-06T00:36:41.836Z,85.93
2019-02-06T00:39:10.917Z,85.93
2019-02-06T00:41:39.371Z,85.69
2019-02-06T00:44:08.385Z,85.92
2019-02-06T00:46:38.568Z,86.02
2019-02-06T00:49:07.285Z,86.16
2019-02-06T00:51:35.813Z,86.25
2019-02-06T00:54:04.569Z,86.29
2019-02-06T00:56:33.303Z,86.35
2019-02-06T00:59:01.960Z,86.37
2019-02-06T01:01:30.415Z,86.54
2019-02-06T01:03:59.203Z,86.64
2019-02-06T01:06:29.524Z,86.59
2019-02-06T01:08:58.270Z,86.58
2019-02-06T01:11:26.795Z,86.55
2019-02-06T01:13:55.246Z,86.79
2019-02-06T01:16:24.420Z,86.90
2019-02-06T01:18:53.472Z,86.91
2019-02-06T01:21:22.223Z,87.07
2019-02-06T01:23:50.950Z,87.08
2019-02-06T01:26:22.118Z,87.24
2019-02-06T01:28:50.693Z,87.23
2019-02-06T01:31:23.057Z,87.42
2019-02-06T01:33:51.492Z,87.45
2019-02-06T01:36:19.979Z,87.66
2019-02-06T01:38:48.812Z,87.68
2019-02-06T01:41:17.674Z,87.71
2019-02-06T01:43:46.216Z,87.44
2019-02-06T01:46:14.695Z,87.17
2019-02-06T01:48:43.429Z,87.60
2019-02-06T01:51:11.949Z,87.74
2019-02-06T01:53:40.936Z,87.91
2019-02-06T01:56:09.361Z,87.90
2019-02-06T01:58:38.104Z,88.06
2019-02-06T02:01:06.556Z,88.13
2019-02-06T02:03:35.020Z,88.14
2019-02-06T02:06:03.528Z,88.37
2019-02-06T02:08:33.648Z,88.42
2019-02-06T02:11:02.519Z,88.42
2019-02-06T02:13:30.954Z,88.43
2019-02-06T02:15:59.692Z,88.49
2019-02-06T02:18:28.237Z,88.60
2019-02-06T02:20:57.165Z,88.53
2019-02-06T02:23:26.086Z,88.55
2019-02-06T02:25:54.914Z,88.57
2019-02-06T02:28:23.680Z,88.48
2019-02-06T02:30:54.557Z,88.32
2019-02-06T02:33:23.986Z,88.29
2019-02-06T02:35:52.432Z,88.26
2019-02-06T02:38:20.883Z,88.35
2019-02-06T02:40:49.741Z,88.30
2019-02-06T02:43:18.630Z,88.38
2019-02-06T02:45:47.443Z,88.35
2019-02-06T02:48:15.915Z,88.32
2019-02-06T02:50:44.359Z,88.33
2019-02-06T02:53:12.794Z,88.23
2019-02-06T02:55:41.564Z,88.19
2019-02-06T02:58:10.206Z,88.23
2019-02-06T03:01:05.932Z,88.25
2019-02-06T03:03:40.962Z,88.22
2019-02-06T03:06:09.665Z,88.34
2019-02-06T03:08:38.371Z,88.39
2019-02-06T03:11:06.832Z,88.43
2019-02-06T03:13:35.604Z,88.47
2019-02-06T03:16:04.056Z,88.53
2019-02-06T03:18:32.491Z,88.61
2019-02-06T03:21:00.949Z,88.62
2019-02-06T03:23:29.777Z,88.61
2019-02-06T03:25:58.522Z,88.63
2019-02-06T03:28:27.087Z,88.57
2019-02-06T03:30:56.594Z,88.39
2019-02-06T03:33:25.405Z,88.33
2019-02-06T03:35:53.883Z,88.24
2019-02-06T03:38:22.994Z,88.18
2019-02-06T03:40:51.759Z,88.12
2019-02-06T03:43:20.236Z,88.05
2019-02-06T03:45:48.768Z,88.05
2019-02-06T03:48:17.291Z,87.94
2019-02-06T03:50:46.190Z,87.73
2019-02-06T03:53:14.708Z,87.55
2019-02-06T03:55:43.526Z,87.33
2019-02-06T03:58:11.960Z,87.14
2019-02-06T04:00:40.422Z,86.91
2019-02-06T04:03:09.176Z,86.78
2019-02-06T04:05:37.627Z,86.71
2019-02-06T04:08:08.518Z,86.72
2019-02-06T04:10:37.761Z,86.74
2019-02-06T04:13:06.225Z,86.75
2019-02-06T04:15:34.805Z,86.65
2019-02-06T04:18:03.254Z,86.62
2019-02-06T04:20:32.120Z,86.79
2019-02-06T04:23:00.574Z,86.95
2019-02-06T04:25:29.051Z,87.10
2019-02-06T04:27:57.493Z,87.16
2019-02-06T04:30:25.951Z,87.11
2019-02-06T04:32:54.422Z,87.04
2019-02-06T04:35:22.980Z,87.00
2019-02-06T04:37:51.916Z,86.97
2019-02-06T04:40:20.427Z,86.84
2019-02-06T04:42:49.249Z,86.73
2019-02-06T04:45:19.086Z,86.60
2019-02-06T04:47:47.516Z,86.47
2019-02-06T04:50:16.498Z,86.46
2019-02-06T04:52:45.788Z,86.45
2019-02-06T04:55:14.783Z,86.45
2019-02-06T04:57:43.318Z,86.40
2019-02-06T05:00:24.339Z,86.31
2019-02-06T05:02:53.079Z,86.21
2019-02-06T05:05:21.830Z,86.22
2019-02-06T05:07:50.307Z,86.20
2019-02-06T05:10:18.820Z,86.22
2019-02-06T05:12:47.593Z,86.27
2019-02-06T05:15:16.308Z,86.41
2019-02-06T05:17:44.796Z,86.39
2019-02-06T05:20:26.670Z,86.47
2019-02-06T05:22:55.171Z,86.55
2019-02-06T05:25:24.015Z,86.64
2019-02-06T05:27:52.481Z,86.79
2019-02-06T05:30:20.906Z,86.97
2019-02-06T05:32:49.363Z,86.93
2019-02-06T05:35:20.187Z,86.93
2019-02-06T05:37:48.854Z,86.97
2019-02-06T05:40:17.341Z,87.00
2019-02-06T05:42:46.645Z,86.97
2019-02-06T05:45:15.123Z,86.79
2019-02-06T05:47:43.907Z,86.67
2019-02-06T05:50:12.599Z,86.46
2019-02-06T05:52:41.070Z,85.99
2019-02-06T05:55:09.598Z,85.66
2019-02-06T05:57:38.448Z,85.64
2019-02-06T06:00:14.128Z,85.62
2019-02-06T06:02:42.592Z,85.76
2019-02-06T06:05:11.365Z,85.86
2019-02-06T06:07:45.283Z,85.96
2019-02-06T06:10:12.264Z,86.06
2019-02-06T06:12:41.260Z,86.08
2019-02-06T06:15:10.879Z,86.11
2019-02-06T06:17:41.655Z,86.07
2019-02-06T06:20:10.772Z,86.07
2019-02-06T06:22:39.531Z,86.15
2019-02-06T06:25:08.970Z,86.12
2019-02-06T06:27:38.642Z,85.87
2019-02-06T06:30:09.917Z,85.56
2019-02-06T06:32:39.297Z,85.51
2019-02-06T06:35:08.477Z,85.54
2019-02-06T06:37:37.298Z,85.42
2019-02-06T06:40:07.240Z,85.37
2019-02-06T06:42:35.744Z,85.28
2019-02-06T06:45:07.634Z,85.06
2019-02-06T06:47:36.424Z,85.06
2019-02-06T06:50:06.444Z,85.10
2019-02-06T06:52:35.212Z,85.07
2019-02-06T06:55:04.459Z,85.19
2019-02-06T06:57:33.921Z,85.55
2019-02-06T07:00:02.666Z,85.52
2019-02-06T07:02:32.303Z,85.33
2019-02-06T07:05:00.895Z,85.33
2019-02-06T07:07:29.347Z,85.35
2019-02-06T07:09:57.802Z,85.31
2019-02-06T07:12:26.270Z,85.18
2019-02-06T07:14:55.044Z,85.21
2019-02-06T07:17:23.549Z,85.27
2019-02-06T07:19:52.377Z,85.19
2019-02-06T07:22:21.094Z,85.14
2019-02-06T07:24:49.624Z,85.23
2019-02-06T07:27:20.929Z,85.25
2019-02-06T07:29:48.314Z,85.32
2019-02-06T07:32:16.998Z,85.25
2019-02-06T07:34:45.872Z,85.17
2019-02-06T07:37:14.952Z,85.03
2019-02-06T07:39:43.390Z,84.84
2019-02-06T07:42:12.035Z,84.66
2019-02-06T07:44:40.795Z,84.33
2019-02-06T07:47:10.298Z,84.06
2019-02-06T07:49:38.817Z,84.21
2019-02-06T07:52:07.242Z,83.71
2019-02-06T07:54:35.679Z,82.57
2019-02-06T07:57:04.594Z,82.42
2019-02-06T07:59:33.105Z,82.15
2019-02-06T08:02:01.644Z,81.60
2019-02-06T08:04:30.357Z,81.50
2019-02-06T08:06:59.143Z,80.49
2019-02-06T08:09:28.066Z,80.10
2019-02-06T08:11:56.507Z,80.43
2019-02-06T08:14:25.207Z,79.86
2019-02-06T08:16:54.016Z,79.77
2019-02-06T08:19:22.699Z,78.83
2019-02-06T08:21:51.148Z,78.93
2019-02-06T08:24:19.599Z,77.43
2019-02-06T08:26:48.059Z,77.06
2019-02-06T08:29:16.764Z,76.73
2019-02-06T08:31:46.069Z,77.10
2019-02-06T08:34:14.821Z,76.46
2019-02-06T08:36:43.489Z,76.72
2019-02-06T08:39:12.249Z,75.75
2019-02-06T08:41:41.054Z,75.61
2019-02-06T08:44:09.498Z,75.20
2019-02-06T08:46:38.255Z,74.84
2019-02-06T08:49:06.692Z,75.18
2019-02-06T08:51:35.820Z,74.35
2019-02-06T08:54:04.613Z,74.39
2019-02-06T08:56:33.070Z,73.77
2019-02-06T08:59:01.815Z,74.12
2019-02-06T09:01:30.558Z,72.89
2019-02-06T09:03:58.997Z,72.38
2019-02-06T09:06:27.767Z,72.16
2019-02-06T09:08:59.888Z,71.75
2019-02-06T09:11:26.998Z,71.63
2019-02-06T09:13:55.751Z,71.45
2019-02-06T09:16:24.193Z,71.46
2019-02-06T09:18:52.896Z,70.11
2019-02-06T09:21:21.334Z,71.58
2019-02-06T09:23:50.396Z,70.48
2019-02-06T09:26:19.161Z,69.31
2019-02-06T09:28:47.601Z,68.91
2019-02-06T09:31:16.352Z,68.51
2019-02-06T09:33:44.795Z,68.41
2019-02-06T09:36:14.639Z,68.23
2019-02-06T09:38:43.083Z,68.68
2019-02-06T09:41:11.830Z,68.14
2019-02-06T09:43:40.334Z,68.42
2019-02-06T09:46:08.780Z,66.63
2019-02-06T09:48:37.509Z,67.37
2019-02-06T09:51:05.945Z,66.29
2019-02-06T09:53:34.410Z,66.69
2019-02-06T09:56:02.916Z,65.97
2019-02-06T09:58:31.358Z,65.55
2019-02-06T10:01:00.044Z,65.60
2019-02-06T10:03:28.839Z,64.86
2019-02-06T10:05:57.265Z,64.77
2019-02-06T10:08:25.709Z,64.90
2019-02-06T10:10:54.390Z,65.22
2019-02-06T10:13:23.366Z,63.95
2019-02-06T10:15:52.158Z,63.92
2019-02-06T10:18:20.602Z,63.00
2019-02-06T10:20:51.263Z,63.18
2019-02-06T10:23:20.053Z,62.46
2019-02-06T10:25:49.964Z,62.23
2019-02-06T10:28:18.412Z,62.09
2019-02-06T10:30:49.649Z,61.77
2019-02-06T10:33:19.060Z,61.88
2019-02-06T10:35:47.854Z,61.91
2019-02-06T10:38:16.607Z,62.50
2019-02-06T10:40:45.235Z,62.78
2019-02-06T10:43:13.832Z,62.68
2019-02-06T10:45:42.826Z,63.69
2019-02-06T10:48:30.898Z,62.49
2019-02-06T10:50:59.618Z,62.83
2019-02-06T10:53:28.113Z,62.89
2019-02-06T10:55:56.684Z,62.31
2019-02-06T10:58:25.221Z,62.79
2019-02-06T11:00:56.391Z,62.67
2019-02-06T11:03:25.126Z,62.32
2019-02-06T11:05:53.603Z,62.09
2019-02-06T11:08:24.504Z,61.22
2019-02-06T11:10:53.239Z,60.46
2019-02-06T11:13:21.846Z,58.53
2019-02-06T11:15:50.412Z,57.45
2019-02-06T11:18:19.316Z,56.27
2019-02-06T11:20:48.122Z,56.60
2019-02-06T11:23:16.917Z,55.35
2019-02-06T11:25:45.436Z,55.35
2019-02-06T11:28:14.357Z,57.11
2019-02-06T11:30:42.985Z,56.98
2019-02-06T11:33:11.476Z,57.74
2019-02-06T11:35:40.249Z,55.28
2019-02-06T11:38:08.789Z,55.25
2019-02-06T11:40:37.619Z,54.63
2019-02-06T11:43:06.696Z,55.38
2019-02-06T11:45:35.446Z,54.57
2019-02-06T11:48:04.207Z,54.32
2019-02-06T11:50:35.360Z,52.81
2019-02-06T11:53:04.154Z,50.92
2019-02-06T11:55:32.867Z,48.97
2019-02-06T11:58:01.610Z,50.13
2019-02-06T12:00:44.137Z,49.76
2019-02-06T12:03:12.861Z,49.11
2019-02-06T12:05:41.342Z,49.06
2019-02-06T12:08:12.506Z,49.80
2019-02-06T12:10:40.360Z,50.99
2019-02-06T12:13:09.224Z,50.99
2019-02-06T12:15:37.989Z,49.70
2019-02-06T12:18:06.671Z,51.95
2019-02-06T12:20:35.330Z,52.42
2019-02-06T12:23:03.919Z,52.56
2019-02-06T12:25:34.465Z,52.99
2019-02-06T12:28:05.096Z,53.43
2019-02-06T12:30:33.320Z,52.85
2019-02-06T12:33:02.442Z,53.16
2019-02-06T12:35:31.179Z,53.25
2019-02-06T12:38:01.277Z,53.50
2019-02-06T12:40:29.842Z,53.26
2019-02-06T12:42:59.404Z,52.76
2019-02-06T12:45:28.236Z,53.66
2019-02-06T12:47:56.776Z,54.48
2019-02-06T12:50:27.155Z,54.44
2019-02-06T12:52:57.516Z,55.45
2019-02-06T12:55:28.691Z,55.13
2019-02-06T12:57:57.339Z,54.09
2019-02-06T13:00:27.472Z,54.97
2019-02-06T13:02:59.657Z,56.03
2019-02-06T13:05:26.676Z,55.24
2019-02-06T13:07:55.329Z,55.15
2019-02-06T13:10:33.285Z,55.24
2019-02-06T13:12:54.476Z,56.02
2019-02-06T13:15:23.208Z,55.51
2019-02-06T13:17:52.598Z,55.15
2019-02-06T13:20:23.588Z,54.66
2019-02-06T13:22:52.140Z,54.66
2019-02-06T13:25:20.671Z,54.57
2019-02-06T13:27:49.201Z,54.63
2019-02-06T13:30:26.709Z,54.58
2019-02-06T13:32:55.292Z,54.71
2019-02-06T13:35:23.784Z,54.57
2019-02-06T13:37:52.368Z,54.10
2019-02-06T13:40:21.770Z,54.67
2019-02-06T13:42:50.399Z,53.90
2019-02-06T13:45:24.369Z,53.14
2019-02-06T13:47:52.940Z,53.82
2019-02-06T13:50:22.460Z,53.53
2019-02-06T13:52:51.606Z,53.46
2019-02-06T13:55:20.364Z,54.08
2019-02-06T13:57:48.958Z,53.12
2019-02-06T14:00:25.801Z,53.10
2019-02-06T14:02:54.419Z,53.16
2019-02-06T14:05:29.862Z,54.44
2019-02-06T14:08:00.667Z,54.44
2019-02-06T14:10:29.705Z,53.82
2019-02-06T14:12:58.309Z,53.82
2019-02-06T14:15:28.839Z,53.78
2019-02-06T14:17:57.623Z,52.97
2019-02-06T14:20:26.194Z,52.99
2019-02-06T14:23:01.011Z,53.87
2019-02-06T14:26:27.306Z,53.55
2019-02-06T14:29:26.783Z,54.05
2019-02-06T14:32:50.559Z,54.38
2019-02-06T14:35:40.256Z,54.56
2019-02-06T14:38:39.833Z,54.98
2019-02-06T14:41:45.589Z,55.59
2019-02-06T14:45:03.895Z,55.87
2019-02-06T14:48:05.966Z,55.54
2019-02-06T14:50:52.983Z,55.97
2019-02-06T14:54:03.295Z,56.81
2019-02-06T14:57:01.350Z,57.08
2019-02-06T14:59:52.730Z,56.35
2019-02-06T15:03:00.622Z,56.64
2019-02-06T15:05:50.238Z,56.82
2019-02-06T15:08:45.709Z,56.43
2019-02-06T15:11:24.847Z,56.84
2019-02-06T15:14:28.377Z,56.84
2019-02-06T15:17:16.258Z,56.72
2019-02-06T15:20:04.140Z,56.69
2019-02-06T15:23:04.539Z,57.10
2019-02-06T15:25:49.712Z,57.33
2019-02-06T15:28:44.559Z,57.23
2019-02-06T15:31:35.260Z,57.09
2019-02-06T15:34:27.922Z,58.27
2019-02-06T15:37:34.820Z,56.77
2019-02-06T15:40:23.485Z,57.53
2019-02-06T15:43:07.247Z,57.56
2019-02-06T15:46:20.021Z,58.14
2019-02-06T15:48:58.401Z,57.96
2019-02-06T15:52:10.003Z,58.79
2019-02-06T15:55:41.328Z,58.65
2019-02-06T15:58:35.074Z,58.61
2019-02-06T16:01:41.043Z,58.76
2019-02-06T16:04:46.136Z,58.82
2019-02-06T16:07:41.254Z,58.77
2019-02-06T16:10:44.535Z,58.98
2019-02-06T16:14:09.492Z,59.00
2019-02-06T16:17:02.903Z,58.87
2019-02-06T16:20:05.503Z,59.34
2019-02-06T16:23:09.796Z,59.08
2019-02-06T16:26:12.121Z,58.44
2019-02-06T16:29:12.244Z,58.50
2019-02-06T16:32:14.623Z,58.64
2019-02-06T16:35:20.946Z,59.09
2019-02-06T16:38:19.024Z,58.98
2019-02-06T16:41:28.131Z,59.23
2019-02-06T16:44:11.140Z,59.74
2019-02-06T16:47:05.516Z,59.64
2019-02-06T16:49:44.647Z,59.70
2019-02-06T16:52:41.434Z,59.89
2019-02-06T16:56:05.036Z,59.66
2019-02-06T16:58:48.025Z,59.43
2019-02-06T17:01:39.954Z,59.94
2019-02-06T17:04:44.955Z,59.97
2019-02-06T17:07:54.961Z,59.72
2019-02-06T17:10:41.351Z,59.45
2019-02-06T17:13:32.753Z,59.58
2019-02-06T17:16:50.015Z,59.64
2019-02-06T17:19:56.782Z,59.44
2019-02-06T17:22:58.321Z,59.68
2019-02-06T17:25:37.881Z,59.99
2019-02-06T17:28:43.721Z,59.42
2019-02-06T17:31:47.912Z,59.70
2019-02-06T17:34:54.251Z,60.02
2019-02-06T17:37:56.526Z,59.97
2019-02-06T17:41:19.671Z,59.98
2019-02-06T17:44:23.293Z,60.39
2019-02-06T17:47:35.841Z,60.03
2019-02-06T17:50:36.459Z,60.23
2019-02-06T17:53:58.494Z,60.12
2019-02-06T17:56:27.281Z,60.58
2019-02-06T17:58:55.763Z,60.49
2019-02-06T18:01:33.843Z,60.70
2019-02-06T18:04:08.436Z,60.62
2019-02-06T18:06:36.922Z,60.78
2019-02-06T18:09:10.316Z,60.82
2019-02-06T18:11:38.979Z,61.13
2019-02-06T18:14:07.715Z,60.52
2019-02-06T18:16:36.258Z,60.94
2019-02-06T18:19:04.750Z,60.77
2019-02-06T18:21:33.485Z,61.22
2019-02-06T18:24:02.071Z,61.27
2019-02-06T18:26:31.108Z,61.73
2019-02-06T18:28:59.895Z,61.71
2019-02-06T18:31:28.368Z,61.65
2019-02-06T18:33:57.480Z,62.29
2019-02-06T18:36:26.259Z,61.92
2019-02-06T18:38:54.859Z,62.09
2019-02-06T18:41:23.359Z,62.28
2019-02-06T18:43:52.065Z,62.68
2019-02-06T18:46:20.557Z,62.30
2019-02-06T18:48:49.043Z,62.46
2019-02-06T18:51:17.624Z,62.86
2019-02-06T18:53:47.120Z,63.26
2019-02-06T18:56:15.625Z,63.18
2019-02-06T18:58:44.193Z,63.54
2019-02-06T19:01:12.707Z,63.40
2019-02-06T19:03:43.819Z,63.92
2019-02-06T19:06:12.926Z,63.68
2019-02-06T19:08:41.878Z,63.97
2019-02-06T19:11:10.740Z,64.09
2019-02-06T19:13:39.282Z,63.26
2019-02-06T19:16:07.778Z,63.68
2019-02-06T19:18:37.276Z,63.43
2019-02-06T19:21:06.050Z,63.86
2019-02-06T19:23:34.965Z,63.75
2019-02-06T19:26:03.662Z,63.67
2019-02-06T19:28:32.215Z,64.26
2019-02-06T19:31:00.962Z,64.24
2019-02-06T19:33:29.496Z,64.61
2019-02-06T19:35:57.972Z,64.11
2019-02-06T19:38:27.289Z,64.76
2019-02-06T19:40:55.835Z,64.75
2019-02-06T19:43:24.330Z,64.55
2019-02-06T19:45:52.899Z,65.13
2019-02-06T19:48:22.424Z,64.64
2019-02-06T19:50:51.405Z,64.29
2019-02-06T19:53:20.041Z,64.66
2019-02-06T19:55:48.523Z,64.39
2019-02-06T19:58:16.995Z,64.99
2019-02-06T20:00:47.152Z,64.31
2019-02-06T20:03:15.951Z,64.38
2019-02-06T20:05:44.433Z,64.62
2019-02-06T20:08:14.288Z,64.65
2019-02-06T20:10:44.815Z,64.49
2019-02-06T20:13:14.650Z,64.79
2019-02-06T20:15:43.313Z,64.92
2019-02-06T20:18:12.448Z,64.59
2019-02-06T20:20:40.909Z,64.60
2019-02-06T20:23:12.540Z,65.04
2019-02-06T20:25:41.082Z,64.60
2019-02-06T20:28:15.305Z,64.90
2019-02-06T20:30:59.270Z,65.37
2019-02-06T20:33:27.365Z,65.12
2019-02-06T20:35:56.074Z,65.06
2019-02-06T20:38:24.961Z,65.46
2019-02-06T20:40:53.546Z,64.94
2019-02-06T20:43:22.567Z,65.25
2019-02-06T20:45:51.472Z,65.48
2019-02-06T20:48:20.278Z,65.16
2019-02-06T20:50:51.434Z,65.10
2019-02-06T20:53:19.068Z,65.50
2019-02-06T20:55:47.594Z,65.56
2019-02-06T20:58:16.101Z,65.48
2019-02-06T21:00:44.900Z,65.60
2019-02-06T21:03:13.414Z,65.67
2019-02-06T21:05:42.323Z,65.87
2019-02-06T21:08:11.142Z,65.79
2019-02-06T21:10:39.911Z,66.03
2019-02-06T21:13:08.407Z,66.13
2019-02-06T21:15:36.977Z,65.68
2019-02-06T21:18:05.706Z,65.67
2019-02-06T21:20:34.228Z,65.62
2019-02-06T21:23:03.316Z,65.28
2019-02-06T21:25:31.840Z,65.73
2019-02-06T21:28:00.388Z,65.44
2019-02-06T21:30:30.804Z,65.54
2019-02-06T21:32:59.579Z,65.66
2019-02-06T21:35:28.063Z,65.30
2019-02-06T21:37:56.930Z,65.32
2019-02-06T21:40:27.159Z,65.18
2019-02-06T21:42:55.948Z,65.58
2019-02-06T21:45:24.690Z,65.75
2019-02-06T21:47:53.324Z,65.58
2019-02-06T21:50:22.643Z,65.65
2019-02-06T21:52:51.389Z,65.53
2019-02-06T21:55:20.597Z,65.81
2019-02-06T21:57:49.137Z,65.75
2019-02-06T22:00:28.638Z,65.85
2019-02-06T22:02:57.422Z,65.85
2019-02-06T22:05:26.308Z,65.77
2019-02-06T22:07:55.091Z,66.08
2019-02-06T22:10:23.604Z,66.27
2019-02-06T22:15:41.911Z,66.29
2019-02-06T22:18:11.386Z,66.49
2019-02-06T22:20:40.325Z,66.27
2019-02-06T22:23:09.613Z,66.06
2019-02-06T22:25:38.285Z,66.33
2019-02-06T22:28:06.994Z,66.40
2019-02-06T22:30:35.450Z,66.04
2019-02-06T22:33:04.573Z,65.43
2019-02-06T22:35:33.481Z,65.45
2019-02-06T22:38:01.932Z,65.19
2019-02-06T22:40:30.683Z,65.17
2019-02-06T22:42:59.130Z,65.30
2019-02-06T22:45:27.754Z,65.24
2019-02-06T22:47:56.621Z,64.98
2019-02-06T22:50:26.180Z,65.34
2019-02-06T22:52:54.625Z,65.58
2019-02-06T22:55:23.073Z,65.63
2019-02-06T22:57:52.221Z,65.75
2019-02-06T23:00:55.520Z,65.99
2019-02-06T23:03:35.899Z,66.13
2019-02-06T23:06:05.427Z,66.55
2019-02-06T23:08:34.165Z,66.44
2019-02-06T23:11:03.033Z,66.23
2019-02-06T23:13:31.853Z,66.33
2019-02-06T23:16:00.634Z,66.04
2019-02-06T23:18:29.163Z,65.91
2019-02-06T23:20:58.073Z,65.53
2019-02-06T23:23:26.747Z,65.51
2019-02-06T23:25:55.573Z,65.47
2019-02-06T23:28:24.375Z,64.99
2019-02-06T23:30:52.836Z,64.84
2019-02-06T23:33:21.281Z,64.86
2019-02-06T23:35:49.757Z,64.72
2019-02-06T23:38:18.217Z,64.70
2019-02-06T23:40:47.043Z,64.73
2019-02-06T23:43:15.484Z,65.43
2019-02-06T23:45:44.253Z,65.08
2019-02-06T23:48:13.219Z,65.15
2019-02-06T23:50:41.928Z,65.43
2019-02-06T23:53:10.464Z,65.52
2019-02-06T23:55:38.884Z,65.39
2019-02-06T23:58:07.333Z,65.64
